sensor_id;sensor_type;location;lat;lon;timestamp;P1;durP1;ratioP1;P2;durP2;ratioP2
54123;SDS011;55741;53.252;5.788;2022-12-07T00:01:10;10.40;;;1.50;;
54123;SDS011;55741;53.252;5.788;2022-12-07T00:03:38;8.45;;;1.42;;
54123;SDS011;55741;53.252;5.788;2022-12-07T00:06:06;12.93;;;1.75;;
54123;SDS011;55741;53.252;5.788;2022-12-07T00:08:34;10.90;;;1.55;;
54123;SDS011;55741;53.252;5.788;2022-12-07T00:11:02;7.47;;;1.27;;
54123;SDS011;55741;53.252;5.788;2022-12-07T00:13:36;9.10;;;1.63;;
54123;SDS011;55741;53.252;5.788;2022-12-07T00:16:13;9.68;;;1.40;;
54123;SDS011;55741;53.252;5.788;2022-12-07T00:18:41;18.80;;;2.30;;
54123;SDS011;55741;53.252;5.788;2022-12-07T00:21:12;24.17;;;2.60;;
54123;SDS011;55741;53.252;5.788;2022-12-07T00:23:40;10.20;;;2.70;;
54123;SDS011;55741;53.252;5.788;2022-12-07T00:26:07;11.23;;;2.03;;
54123;SDS011;55741;53.252;5.788;2022-12-07T00:28:37;7.63;;;1.50;;
54123;SDS011;55741;53.252;5.788;2022-12-07T00:31:04;6.13;;;1.05;;
54123;SDS011;55741;53.252;5.788;2022-12-07T00:33:32;9.45;;;1.30;;
54123;SDS011;55741;53.252;5.788;2022-12-07T00:35:59;4.85;;;1.00;;
54123;SDS011;55741;53.252;5.788;2022-12-07T00:38:27;5.18;;;1.02;;
54123;SDS011;55741;53.252;5.788;2022-12-07T00:41:03;6.03;;;0.90;;
54123;SDS011;55741;53.252;5.788;2022-12-07T00:43:35;3.63;;;0.70;;
54123;SDS011;55741;53.252;5.788;2022-12-07T00:46:01;5.38;;;1.05;;
54123;SDS011;55741;53.252;5.788;2022-12-07T00:48:27;4.82;;;0.90;;
54123;SDS011;55741;53.252;5.788;2022-12-07T00:50:52;7.18;;;1.23;;
54123;SDS011;55741;53.252;5.788;2022-12-07T00:53:18;5.18;;;1.15;;
54123;SDS011;55741;53.252;5.788;2022-12-07T00:55:44;9.70;;;1.42;;
54123;SDS011;55741;53.252;5.788;2022-12-07T00:58:10;8.45;;;1.42;;
54123;SDS011;55741;53.252;5.788;2022-12-07T01:00:37;9.80;;;1.52;;
54123;SDS011;55741;53.252;5.788;2022-12-07T01:03:05;13.10;;;1.50;;
54123;SDS011;55741;53.252;5.788;2022-12-07T01:05:31;12.93;;;2.15;;
54123;SDS011;55741;53.252;5.788;2022-12-07T01:07:57;7.38;;;1.83;;
54123;SDS011;55741;53.252;5.788;2022-12-07T01:10:25;10.63;;;1.77;;
54123;SDS011;55741;53.252;5.788;2022-12-07T01:12:51;10.38;;;1.73;;
54123;SDS011;55741;53.252;5.788;2022-12-07T01:15:17;13.85;;;1.75;;
54123;SDS011;55741;53.252;5.788;2022-12-07T01:17:43;10.40;;;1.80;;
54123;SDS011;55741;53.252;5.788;2022-12-07T01:20:09;7.93;;;1.60;;
54123;SDS011;55741;53.252;5.788;2022-12-07T01:22:38;9.48;;;1.30;;
54123;SDS011;55741;53.252;5.788;2022-12-07T01:25:05;8.15;;;1.23;;
54123;SDS011;55741;53.252;5.788;2022-12-07T01:27:33;6.80;;;1.58;;
54123;SDS011;55741;53.252;5.788;2022-12-07T01:29:59;8.07;;;1.95;;
54123;SDS011;55741;53.252;5.788;2022-12-07T01:32:26;5.30;;;1.27;;
54123;SDS011;55741;53.252;5.788;2022-12-07T01:34:52;6.88;;;2.47;;
54123;SDS011;55741;53.252;5.788;2022-12-07T01:37:18;6.95;;;1.65;;
54123;SDS011;55741;53.252;5.788;2022-12-07T01:39:44;10.13;;;1.70;;
54123;SDS011;55741;53.252;5.788;2022-12-07T01:42:13;9.63;;;1.50;;
54123;SDS011;55741;53.252;5.788;2022-12-07T01:47:42;14.40;;;1.70;;
54123;SDS011;55741;53.252;5.788;2022-12-07T01:50:15;12.02;;;1.88;;
54123;SDS011;55741;53.252;5.788;2022-12-07T01:52:42;14.60;;;1.83;;
54123;SDS011;55741;53.252;5.788;2022-12-07T01:55:12;8.43;;;1.60;;
54123;SDS011;55741;53.252;5.788;2022-12-07T01:57:42;9.65;;;1.60;;
54123;SDS011;55741;53.252;5.788;2022-12-07T02:00:12;9.95;;;1.60;;
54123;SDS011;55741;53.252;5.788;2022-12-07T02:02:43;13.57;;;2.50;;
54123;SDS011;55741;53.252;5.788;2022-12-07T02:05:11;14.40;;;2.25;;
54123;SDS011;55741;53.252;5.788;2022-12-07T02:07:38;21.33;;;2.80;;
54123;SDS011;55741;53.252;5.788;2022-12-07T02:10:14;12.90;;;2.70;;
54123;SDS011;55741;53.252;5.788;2022-12-07T02:12:44;13.32;;;2.15;;
54123;SDS011;55741;53.252;5.788;2022-12-07T02:15:14;12.98;;;1.90;;
54123;SDS011;55741;53.252;5.788;2022-12-07T02:17:45;22.70;;;2.55;;
54123;SDS011;55741;53.252;5.788;2022-12-07T02:20:48;15.27;;;3.13;;
54123;SDS011;55741;53.252;5.788;2022-12-07T02:40:19;12.82;;;1.85;;
54123;SDS011;55741;53.252;5.788;2022-12-07T02:42:58;11.57;;;1.92;;
54123;SDS011;55741;53.252;5.788;2022-12-07T02:45:31;6.63;;;1.27;;
54123;SDS011;55741;53.252;5.788;2022-12-07T02:48:01;6.95;;;1.27;;
54123;SDS011;55741;53.252;5.788;2022-12-07T02:50:29;7.38;;;1.25;;
54123;SDS011;55741;53.252;5.788;2022-12-07T02:52:54;12.88;;;1.67;;
54123;SDS011;55741;53.252;5.788;2022-12-07T02:55:23;9.23;;;2.30;;
54123;SDS011;55741;53.252;5.788;2022-12-07T03:00:44;13.25;;;2.25;;
54123;SDS011;55741;53.252;5.788;2022-12-07T03:03:39;14.18;;;1.73;;
54123;SDS011;55741;53.252;5.788;2022-12-07T03:06:15;9.65;;;1.85;;
54123;SDS011;55741;53.252;5.788;2022-12-07T03:09:21;15.85;;;1.73;;
54123;SDS011;55741;53.252;5.788;2022-12-07T03:11:47;9.30;;;1.77;;
54123;SDS011;55741;53.252;5.788;2022-12-07T03:14:21;10.45;;;1.65;;
54123;SDS011;55741;53.252;5.788;2022-12-07T03:17:06;11.23;;;2.05;;
54123;SDS011;55741;53.252;5.788;2022-12-07T03:19:43;7.13;;;1.10;;
54123;SDS011;55741;53.252;5.788;2022-12-07T03:22:12;6.50;;;1.08;;
54123;SDS011;55741;53.252;5.788;2022-12-07T03:24:40;5.18;;;1.10;;
54123;SDS011;55741;53.252;5.788;2022-12-07T03:29:49;8.13;;;1.23;;
54123;SDS011;55741;53.252;5.788;2022-12-07T03:35:31;6.50;;;1.13;;
54123;SDS011;55741;53.252;5.788;2022-12-07T03:38:11;9.45;;;1.42;;
54123;SDS011;55741;53.252;5.788;2022-12-07T03:40:50;13.00;;;2.25;;
54123;SDS011;55741;53.252;5.788;2022-12-07T03:43:39;17.85;;;2.17;;
54123;SDS011;55741;53.252;5.788;2022-12-07T03:46:27;16.77;;;2.20;;
54123;SDS011;55741;53.252;5.788;2022-12-07T03:49:12;10.80;;;2.08;;
54123;SDS011;55741;53.252;5.788;2022-12-07T03:52:05;12.27;;;1.73;;
54123;SDS011;55741;53.252;5.788;2022-12-07T03:54:50;8.50;;;2.15;;
54123;SDS011;55741;53.252;5.788;2022-12-07T03:57:21;14.27;;;2.00;;
54123;SDS011;55741;53.252;5.788;2022-12-07T03:59:49;7.90;;;1.50;;
54123;SDS011;55741;53.252;5.788;2022-12-07T04:02:16;11.68;;;1.77;;
54123;SDS011;55741;53.252;5.788;2022-12-07T04:04:42;12.25;;;1.98;;
54123;SDS011;55741;53.252;5.788;2022-12-07T04:07:08;13.63;;;1.55;;
54123;SDS011;55741;53.252;5.788;2022-12-07T04:09:34;12.57;;;1.33;;
54123;SDS011;55741;53.252;5.788;2022-12-07T04:12:00;10.88;;;2.05;;
54123;SDS011;55741;53.252;5.788;2022-12-07T04:14:27;7.55;;;1.73;;
54123;SDS011;55741;53.252;5.788;2022-12-07T04:16:54;6.35;;;1.25;;
54123;SDS011;55741;53.252;5.788;2022-12-07T04:19:25;11.00;;;1.50;;
54123;SDS011;55741;53.252;5.788;2022-12-07T04:21:53;6.85;;;1.88;;
54123;SDS011;55741;53.252;5.788;2022-12-07T04:24:19;10.00;;;2.28;;
54123;SDS011;55741;53.252;5.788;2022-12-07T04:26:45;19.15;;;2.47;;
54123;SDS011;55741;53.252;5.788;2022-12-07T04:29:12;13.35;;;2.22;;
54123;SDS011;55741;53.252;5.788;2022-12-07T04:31:38;12.60;;;1.90;;
54123;SDS011;55741;53.252;5.788;2022-12-07T04:34:05;19.90;;;2.42;;
54123;SDS011;55741;53.252;5.788;2022-12-07T04:36:31;11.38;;;1.05;;
54123;SDS011;55741;53.252;5.788;2022-12-07T04:38:58;13.73;;;1.75;;
54123;SDS011;55741;53.252;5.788;2022-12-07T04:41:24;9.98;;;1.40;;
54123;SDS011;55741;53.252;5.788;2022-12-07T04:43:54;8.23;;;1.45;;
54123;SDS011;55741;53.252;5.788;2022-12-07T04:46:22;11.40;;;1.67;;
54123;SDS011;55741;53.252;5.788;2022-12-07T04:48:49;20.58;;;1.95;;
54123;SDS011;55741;53.252;5.788;2022-12-07T04:51:15;11.48;;;1.70;;
54123;SDS011;55741;53.252;5.788;2022-12-07T04:53:45;12.15;;;2.00;;
54123;SDS011;55741;53.252;5.788;2022-12-07T04:56:11;13.63;;;2.03;;
54123;SDS011;55741;53.252;5.788;2022-12-07T04:58:37;14.20;;;2.13;;
54123;SDS011;55741;53.252;5.788;2022-12-07T05:01:03;15.43;;;2.08;;
54123;SDS011;55741;53.252;5.788;2022-12-07T05:03:28;6.15;;;1.33;;
54123;SDS011;55741;53.252;5.788;2022-12-07T05:05:54;11.23;;;1.63;;
54123;SDS011;55741;53.252;5.788;2022-12-07T05:08:20;9.82;;;1.50;;
54123;SDS011;55741;53.252;5.788;2022-12-07T05:10:46;13.93;;;2.42;;
54123;SDS011;55741;53.252;5.788;2022-12-07T05:13:14;14.02;;;2.40;;
54123;SDS011;55741;53.252;5.788;2022-12-07T05:15:41;15.48;;;2.03;;
54123;SDS011;55741;53.252;5.788;2022-12-07T05:18:10;14.68;;;1.88;;
54123;SDS011;55741;53.252;5.788;2022-12-07T05:20:38;12.38;;;1.92;;
54123;SDS011;55741;53.252;5.788;2022-12-07T05:23:04;16.48;;;2.42;;
54123;SDS011;55741;53.252;5.788;2022-12-07T05:25:30;14.73;;;1.98;;
54123;SDS011;55741;53.252;5.788;2022-12-07T05:27:56;17.75;;;2.20;;
54123;SDS011;55741;53.252;5.788;2022-12-07T05:30:22;16.95;;;2.33;;
54123;SDS011;55741;53.252;5.788;2022-12-07T05:32:49;7.78;;;1.67;;
54123;SDS011;55741;53.252;5.788;2022-12-07T05:35:15;14.68;;;2.05;;
54123;SDS011;55741;53.252;5.788;2022-12-07T05:37:41;8.10;;;1.60;;
54123;SDS011;55741;53.252;5.788;2022-12-07T05:40:07;8.23;;;1.50;;
54123;SDS011;55741;53.252;5.788;2022-12-07T05:42:33;10.75;;;2.63;;
54123;SDS011;55741;53.252;5.788;2022-12-07T05:44:59;10.23;;;2.00;;
54123;SDS011;55741;53.252;5.788;2022-12-07T05:47:25;12.45;;;2.13;;
54123;SDS011;55741;53.252;5.788;2022-12-07T05:49:51;16.63;;;1.90;;
54123;SDS011;55741;53.252;5.788;2022-12-07T05:52:17;15.93;;;1.70;;
54123;SDS011;55741;53.252;5.788;2022-12-07T05:54:43;9.60;;;2.05;;
54123;SDS011;55741;53.252;5.788;2022-12-07T05:57:09;11.80;;;2.20;;
54123;SDS011;55741;53.252;5.788;2022-12-07T05:59:34;14.95;;;2.08;;
54123;SDS011;55741;53.252;5.788;2022-12-07T06:02:02;15.18;;;2.35;;
54123;SDS011;55741;53.252;5.788;2022-12-07T06:04:34;12.52;;;1.80;;
54123;SDS011;55741;53.252;5.788;2022-12-07T06:07:04;11.75;;;1.80;;
54123;SDS011;55741;53.252;5.788;2022-12-07T06:09:31;12.23;;;1.90;;
54123;SDS011;55741;53.252;5.788;2022-12-07T06:12:00;8.25;;;1.52;;
54123;SDS011;55741;53.252;5.788;2022-12-07T06:14:45;7.75;;;1.70;;
54123;SDS011;55741;53.252;5.788;2022-12-07T06:17:12;4.65;;;1.67;;
54123;SDS011;55741;53.252;5.788;2022-12-07T06:19:39;11.48;;;1.90;;
54123;SDS011;55741;53.252;5.788;2022-12-07T06:22:05;11.75;;;2.00;;
54123;SDS011;55741;53.252;5.788;2022-12-07T06:24:32;18.23;;;2.25;;
54123;SDS011;55741;53.252;5.788;2022-12-07T06:26:58;13.32;;;2.03;;
54123;SDS011;55741;53.252;5.788;2022-12-07T06:29:24;15.32;;;2.13;;
54123;SDS011;55741;53.252;5.788;2022-12-07T06:31:51;15.50;;;2.17;;
54123;SDS011;55741;53.252;5.788;2022-12-07T06:34:18;20.63;;;2.67;;
54123;SDS011;55741;53.252;5.788;2022-12-07T06:36:45;11.00;;;2.40;;
54123;SDS011;55741;53.252;5.788;2022-12-07T06:39:16;15.80;;;3.20;;
54123;SDS011;55741;53.252;5.788;2022-12-07T06:41:45;16.67;;;2.58;;
54123;SDS011;55741;53.252;5.788;2022-12-07T06:44:12;7.70;;;1.80;;
54123;SDS011;55741;53.252;5.788;2022-12-07T06:46:38;11.95;;;2.28;;
54123;SDS011;55741;53.252;5.788;2022-12-07T06:49:04;11.02;;;1.90;;
54123;SDS011;55741;53.252;5.788;2022-12-07T06:51:31;13.23;;;2.20;;
54123;SDS011;55741;53.252;5.788;2022-12-07T06:53:57;11.80;;;1.73;;
54123;SDS011;55741;53.252;5.788;2022-12-07T06:56:23;10.60;;;1.83;;
54123;SDS011;55741;53.252;5.788;2022-12-07T06:58:49;11.68;;;1.73;;
54123;SDS011;55741;53.252;5.788;2022-12-07T07:01:16;11.30;;;2.15;;
54123;SDS011;55741;53.252;5.788;2022-12-07T07:03:43;12.45;;;1.92;;
54123;SDS011;55741;53.252;5.788;2022-12-07T07:06:10;12.77;;;1.95;;
54123;SDS011;55741;53.252;5.788;2022-12-07T07:08:37;12.68;;;2.15;;
54123;SDS011;55741;53.252;5.788;2022-12-07T07:11:04;14.35;;;3.00;;
54123;SDS011;55741;53.252;5.788;2022-12-07T07:13:31;14.32;;;2.22;;
54123;SDS011;55741;53.252;5.788;2022-12-07T07:15:57;14.25;;;2.42;;
54123;SDS011;55741;53.252;5.788;2022-12-07T07:18:25;8.88;;;2.08;;
54123;SDS011;55741;53.252;5.788;2022-12-07T07:20:51;14.10;;;2.08;;
54123;SDS011;55741;53.252;5.788;2022-12-07T07:23:18;9.07;;;1.85;;
54123;SDS011;55741;53.252;5.788;2022-12-07T07:25:44;19.08;;;2.15;;
54123;SDS011;55741;53.252;5.788;2022-12-07T07:28:11;10.20;;;1.85;;
54123;SDS011;55741;53.252;5.788;2022-12-07T07:30:36;16.55;;;2.42;;
54123;SDS011;55741;53.252;5.788;2022-12-07T07:33:03;19.08;;;2.75;;
54123;SDS011;55741;53.252;5.788;2022-12-07T07:35:30;12.70;;;2.22;;
54123;SDS011;55741;53.252;5.788;2022-12-07T07:37:57;17.88;;;2.50;;
54123;SDS011;55741;53.252;5.788;2022-12-07T07:40:23;21.38;;;2.35;;
54123;SDS011;55741;53.252;5.788;2022-12-07T07:42:50;12.70;;;2.08;;
54123;SDS011;55741;53.252;5.788;2022-12-07T07:45:18;16.17;;;3.08;;
54123;SDS011;55741;53.252;5.788;2022-12-07T07:47:44;16.25;;;3.13;;
54123;SDS011;55741;53.252;5.788;2022-12-07T07:50:10;13.50;;;2.38;;
54123;SDS011;55741;53.252;5.788;2022-12-07T07:52:36;12.68;;;1.92;;
54123;SDS011;55741;53.252;5.788;2022-12-07T07:55:03;18.48;;;1.85;;
54123;SDS011;55741;53.252;5.788;2022-12-07T07:57:29;19.25;;;2.33;;
54123;SDS011;55741;53.252;5.788;2022-12-07T07:59:55;16.35;;;1.90;;
54123;SDS011;55741;53.252;5.788;2022-12-07T08:02:21;15.15;;;2.25;;
54123;SDS011;55741;53.252;5.788;2022-12-07T08:04:47;8.32;;;1.90;;
54123;SDS011;55741;53.252;5.788;2022-12-07T08:07:13;15.15;;;2.13;;
54123;SDS011;55741;53.252;5.788;2022-12-07T08:09:40;11.23;;;1.95;;
54123;SDS011;55741;53.252;5.788;2022-12-07T08:12:06;9.60;;;2.03;;
54123;SDS011;55741;53.252;5.788;2022-12-07T08:14:32;8.18;;;1.30;;
54123;SDS011;55741;53.252;5.788;2022-12-07T08:16:59;11.07;;;1.23;;
54123;SDS011;55741;53.252;5.788;2022-12-07T08:19:27;9.63;;;1.48;;
54123;SDS011;55741;53.252;5.788;2022-12-07T08:21:52;8.95;;;1.58;;
54123;SDS011;55741;53.252;5.788;2022-12-07T08:24:20;10.75;;;1.67;;
54123;SDS011;55741;53.252;5.788;2022-12-07T08:26:46;7.15;;;1.48;;
54123;SDS011;55741;53.252;5.788;2022-12-07T08:29:12;6.80;;;1.58;;
54123;SDS011;55741;53.252;5.788;2022-12-07T08:31:37;12.02;;;1.77;;
54123;SDS011;55741;53.252;5.788;2022-12-07T08:34:03;9.45;;;1.70;;
54123;SDS011;55741;53.252;5.788;2022-12-07T08:36:29;11.88;;;2.35;;
54123;SDS011;55741;53.252;5.788;2022-12-07T08:38:55;10.05;;;1.50;;
54123;SDS011;55741;53.252;5.788;2022-12-07T08:41:21;11.25;;;2.45;;
54123;SDS011;55741;53.252;5.788;2022-12-07T08:43:47;10.90;;;1.75;;
54123;SDS011;55741;53.252;5.788;2022-12-07T08:46:20;10.23;;;1.55;;
54123;SDS011;55741;53.252;5.788;2022-12-07T08:49:10;9.07;;;2.50;;
54123;SDS011;55741;53.252;5.788;2022-12-07T08:51:39;7.13;;;1.50;;
54123;SDS011;55741;53.252;5.788;2022-12-07T08:54:07;7.55;;;1.30;;
54123;SDS011;55741;53.252;5.788;2022-12-07T08:56:36;9.07;;;1.77;;
54123;SDS011;55741;53.252;5.788;2022-12-07T08:59:03;7.75;;;1.58;;
54123;SDS011;55741;53.252;5.788;2022-12-07T09:01:29;18.83;;;2.03;;
54123;SDS011;55741;53.252;5.788;2022-12-07T09:03:55;12.05;;;2.30;;
54123;SDS011;55741;53.252;5.788;2022-12-07T09:06:21;8.05;;;1.63;;
54123;SDS011;55741;53.252;5.788;2022-12-07T09:08:47;10.50;;;2.20;;
54123;SDS011;55741;53.252;5.788;2022-12-07T09:11:16;8.60;;;1.73;;
54123;SDS011;55741;53.252;5.788;2022-12-07T09:13:42;11.27;;;2.15;;
54123;SDS011;55741;53.252;5.788;2022-12-07T09:16:08;10.82;;;2.13;;
54123;SDS011;55741;53.252;5.788;2022-12-07T09:18:33;11.00;;;3.17;;
54123;SDS011;55741;53.252;5.788;2022-12-07T09:21:01;9.38;;;1.90;;
54123;SDS011;55741;53.252;5.788;2022-12-07T09:23:27;7.03;;;1.58;;
54123;SDS011;55741;53.252;5.788;2022-12-07T09:25:52;12.18;;;2.28;;
54123;SDS011;55741;53.252;5.788;2022-12-07T09:28:18;16.02;;;2.10;;
54123;SDS011;55741;53.252;5.788;2022-12-07T09:30:47;14.48;;;2.50;;
54123;SDS011;55741;53.252;5.788;2022-12-07T09:33:14;17.52;;;2.15;;
54123;SDS011;55741;53.252;5.788;2022-12-07T09:35:47;19.27;;;3.13;;
54123;SDS011;55741;53.252;5.788;2022-12-07T09:38:19;11.82;;;1.85;;
54123;SDS011;55741;53.252;5.788;2022-12-07T09:40:46;15.98;;;2.45;;
54123;SDS011;55741;53.252;5.788;2022-12-07T09:43:13;16.65;;;2.17;;
54123;SDS011;55741;53.252;5.788;2022-12-07T09:45:48;10.75;;;1.85;;
54123;SDS011;55741;53.252;5.788;2022-12-07T09:48:21;16.35;;;2.20;;
54123;SDS011;55741;53.252;5.788;2022-12-07T09:50:53;12.73;;;1.67;;
54123;SDS011;55741;53.252;5.788;2022-12-07T09:53:24;8.75;;;1.83;;
54123;SDS011;55741;53.252;5.788;2022-12-07T09:55:53;9.43;;;1.70;;
54123;SDS011;55741;53.252;5.788;2022-12-07T09:58:28;9.55;;;1.50;;
54123;SDS011;55741;53.252;5.788;2022-12-07T10:00:57;7.50;;;1.52;;
54123;SDS011;55741;53.252;5.788;2022-12-07T10:03:28;8.40;;;1.65;;
54123;SDS011;55741;53.252;5.788;2022-12-07T10:05:54;12.18;;;1.63;;
54123;SDS011;55741;53.252;5.788;2022-12-07T10:08:22;10.85;;;1.73;;
54123;SDS011;55741;53.252;5.788;2022-12-07T10:10:52;5.82;;;1.33;;
54123;SDS011;55741;53.252;5.788;2022-12-07T10:13:35;3.85;;;0.95;;
54123;SDS011;55741;53.252;5.788;2022-12-07T10:16:01;4.90;;;1.10;;
54123;SDS011;55741;53.252;5.788;2022-12-07T10:21:04;6.45;;;1.00;;
54123;SDS011;55741;53.252;5.788;2022-12-07T10:23:34;4.82;;;1.20;;
54123;SDS011;55741;53.252;5.788;2022-12-07T10:26:25;5.75;;;1.10;;
54123;SDS011;55741;53.252;5.788;2022-12-07T10:28:54;8.80;;;1.02;;
54123;SDS011;55741;53.252;5.788;2022-12-07T10:31:22;10.02;;;1.40;;
54123;SDS011;55741;53.252;5.788;2022-12-07T10:33:55;4.57;;;1.20;;
54123;SDS011;55741;53.252;5.788;2022-12-07T10:38:52;5.45;;;1.35;;
54123;SDS011;55741;53.252;5.788;2022-12-07T10:41:26;3.70;;;0.90;;
54123;SDS011;55741;53.252;5.788;2022-12-07T10:43:53;3.20;;;0.82;;
54123;SDS011;55741;53.252;5.788;2022-12-07T10:49:02;7.88;;;1.40;;
54123;SDS011;55741;53.252;5.788;2022-12-07T10:51:59;6.32;;;1.65;;
54123;SDS011;55741;53.252;5.788;2022-12-07T10:54:39;8.35;;;1.30;;
54123;SDS011;55741;53.252;5.788;2022-12-07T11:00:53;8.10;;;1.73;;
54123;SDS011;55741;53.252;5.788;2022-12-07T11:03:15;8.70;;;1.10;;
54123;SDS011;55741;53.252;5.788;2022-12-07T11:08:47;5.50;;;1.33;;
54123;SDS011;55741;53.252;5.788;2022-12-07T11:14:09;11.10;;;1.92;;
54123;SDS011;55741;53.252;5.788;2022-12-07T11:33:15;6.70;;;1.45;;
54123;SDS011;55741;53.252;5.788;2022-12-07T11:38:36;9.13;;;1.65;;
54123;SDS011;55741;53.252;5.788;2022-12-07T11:41:08;9.35;;;1.45;;
54123;SDS011;55741;53.252;5.788;2022-12-07T11:43:45;7.00;;;1.50;;
54123;SDS011;55741;53.252;5.788;2022-12-07T11:46:27;9.00;;;1.63;;
54123;SDS011;55741;53.252;5.788;2022-12-07T11:49:08;5.22;;;1.40;;
54123;SDS011;55741;53.252;5.788;2022-12-07T11:51:57;8.60;;;1.38;;
54123;SDS011;55741;53.252;5.788;2022-12-07T11:54:28;9.82;;;1.63;;
54123;SDS011;55741;53.252;5.788;2022-12-07T11:57:03;7.07;;;1.50;;
54123;SDS011;55741;53.252;5.788;2022-12-07T11:59:41;13.30;;;1.50;;
54123;SDS011;55741;53.252;5.788;2022-12-07T12:02:14;8.98;;;1.73;;
54123;SDS011;55741;53.252;5.788;2022-12-07T12:04:47;7.97;;;1.40;;
54123;SDS011;55741;53.252;5.788;2022-12-07T12:07:21;7.25;;;1.33;;
54123;SDS011;55741;53.252;5.788;2022-12-07T12:09:51;9.05;;;1.50;;
54123;SDS011;55741;53.252;5.788;2022-12-07T12:12:38;6.60;;;1.10;;
54123;SDS011;55741;53.252;5.788;2022-12-07T12:21:10;7.10;;;1.23;;
54123;SDS011;55741;53.252;5.788;2022-12-07T12:23:42;5.97;;;1.38;;
54123;SDS011;55741;53.252;5.788;2022-12-07T12:26:32;11.20;;;1.65;;
54123;SDS011;55741;53.252;5.788;2022-12-07T12:29:24;6.50;;;1.35;;
54123;SDS011;55741;53.252;5.788;2022-12-07T12:32:08;6.15;;;1.48;;
54123;SDS011;55741;53.252;5.788;2022-12-07T12:37:49;8.35;;;1.80;;
54123;SDS011;55741;53.252;5.788;2022-12-07T12:42:53;6.65;;;1.38;;
54123;SDS011;55741;53.252;5.788;2022-12-07T12:50:26;5.95;;;1.42;;
54123;SDS011;55741;53.252;5.788;2022-12-07T12:52:57;14.40;;;1.75;;
54123;SDS011;55741;53.252;5.788;2022-12-07T12:55:29;10.48;;;1.35;;
54123;SDS011;55741;53.252;5.788;2022-12-07T13:01:46;5.50;;;1.40;;
54123;SDS011;55741;53.252;5.788;2022-12-07T13:04:13;5.55;;;1.33;;
54123;SDS011;55741;53.252;5.788;2022-12-07T13:06:43;7.55;;;1.40;;
54123;SDS011;55741;53.252;5.788;2022-12-07T13:09:19;5.57;;;1.30;;
54123;SDS011;55741;53.252;5.788;2022-12-07T13:12:01;12.30;;;2.17;;
54123;SDS011;55741;53.252;5.788;2022-12-07T13:17:12;6.82;;;1.52;;
54123;SDS011;55741;53.252;5.788;2022-12-07T13:20:06;5.80;;;1.45;;
54123;SDS011;55741;53.252;5.788;2022-12-07T13:25:17;4.93;;;1.20;;
54123;SDS011;55741;53.252;5.788;2022-12-07T13:27:57;4.82;;;1.00;;
54123;SDS011;55741;53.252;5.788;2022-12-07T13:30:27;4.53;;;1.20;;
54123;SDS011;55741;53.252;5.788;2022-12-07T13:32:55;8.20;;;0.95;;
54123;SDS011;55741;53.252;5.788;2022-12-07T13:35:32;5.05;;;0.80;;
54123;SDS011;55741;53.252;5.788;2022-12-07T13:38:02;2.63;;;0.70;;
54123;SDS011;55741;53.252;5.788;2022-12-07T13:40:31;1.73;;;0.70;;
54123;SDS011;55741;53.252;5.788;2022-12-07T13:43:01;1.70;;;0.70;;
54123;SDS011;55741;53.252;5.788;2022-12-07T13:45:32;2.88;;;0.68;;
54123;SDS011;55741;53.252;5.788;2022-12-07T13:48:37;3.40;;;0.90;;
54123;SDS011;55741;53.252;5.788;2022-12-07T13:51:19;1.58;;;0.88;;
54123;SDS011;55741;53.252;5.788;2022-12-07T13:54:01;3.03;;;0.80;;
54123;SDS011;55741;53.252;5.788;2022-12-07T13:56:38;3.15;;;0.70;;
54123;SDS011;55741;53.252;5.788;2022-12-07T13:59:12;2.40;;;0.70;;
54123;SDS011;55741;53.252;5.788;2022-12-07T14:01:41;4.32;;;1.00;;
54123;SDS011;55741;53.252;5.788;2022-12-07T14:04:24;4.85;;;0.93;;
54123;SDS011;55741;53.252;5.788;2022-12-07T14:06:58;2.70;;;0.82;;
54123;SDS011;55741;53.252;5.788;2022-12-07T14:09:27;3.33;;;1.10;;
54123;SDS011;55741;53.252;5.788;2022-12-07T14:11:55;5.90;;;1.40;;
54123;SDS011;55741;53.252;5.788;2022-12-07T14:14:24;4.85;;;1.00;;
54123;SDS011;55741;53.252;5.788;2022-12-07T14:16:58;4.68;;;1.20;;
54123;SDS011;55741;53.252;5.788;2022-12-07T14:25:15;3.80;;;1.20;;
54123;SDS011;55741;53.252;5.788;2022-12-07T14:27:48;8.23;;;1.33;;
54123;SDS011;55741;53.252;5.788;2022-12-07T14:30:16;8.32;;;1.33;;
54123;SDS011;55741;53.252;5.788;2022-12-07T14:32:43;5.25;;;1.20;;
54123;SDS011;55741;53.252;5.788;2022-12-07T14:35:16;3.15;;;1.10;;
54123;SDS011;55741;53.252;5.788;2022-12-07T14:37:54;5.18;;;0.80;;
54123;SDS011;55741;53.252;5.788;2022-12-07T14:40:21;2.58;;;0.90;;
54123;SDS011;55741;53.252;5.788;2022-12-07T14:43:00;4.93;;;1.33;;
54123;SDS011;55741;53.252;5.788;2022-12-07T14:45:27;5.43;;;1.00;;
54123;SDS011;55741;53.252;5.788;2022-12-07T14:47:53;3.25;;;0.90;;
54123;SDS011;55741;53.252;5.788;2022-12-07T14:50:20;3.65;;;1.10;;
54123;SDS011;55741;53.252;5.788;2022-12-07T14:52:58;3.95;;;1.23;;
54123;SDS011;55741;53.252;5.788;2022-12-07T14:55:28;4.43;;;1.80;;
54123;SDS011;55741;53.252;5.788;2022-12-07T14:57:56;7.25;;;1.52;;
54123;SDS011;55741;53.252;5.788;2022-12-07T15:00:23;5.53;;;1.23;;
54123;SDS011;55741;53.252;5.788;2022-12-07T15:02:51;9.70;;;1.30;;
54123;SDS011;55741;53.252;5.788;2022-12-07T15:05:17;4.90;;;1.10;;
54123;SDS011;55741;53.252;5.788;2022-12-07T15:07:46;2.90;;;0.80;;
54123;SDS011;55741;53.252;5.788;2022-12-07T15:10:14;4.78;;;0.90;;
54123;SDS011;55741;53.252;5.788;2022-12-07T15:12:43;4.57;;;1.45;;
54123;SDS011;55741;53.252;5.788;2022-12-07T15:15:10;3.20;;;0.77;;
54123;SDS011;55741;53.252;5.788;2022-12-07T15:17:35;2.97;;;0.80;;
54123;SDS011;55741;53.252;5.788;2022-12-07T15:20:01;3.78;;;0.90;;
54123;SDS011;55741;53.252;5.788;2022-12-07T15:22:28;3.50;;;1.05;;
54123;SDS011;55741;53.252;5.788;2022-12-07T15:24:56;3.55;;;1.00;;
54123;SDS011;55741;53.252;5.788;2022-12-07T15:27:22;5.80;;;0.98;;
54123;SDS011;55741;53.252;5.788;2022-12-07T15:29:48;4.10;;;1.05;;
54123;SDS011;55741;53.252;5.788;2022-12-07T15:32:16;4.93;;;0.95;;
54123;SDS011;55741;53.252;5.788;2022-12-07T15:34:41;5.90;;;1.42;;
54123;SDS011;55741;53.252;5.788;2022-12-07T15:37:07;6.18;;;1.40;;
54123;SDS011;55741;53.252;5.788;2022-12-07T15:39:33;6.03;;;2.00;;
54123;SDS011;55741;53.252;5.788;2022-12-07T15:42:01;7.47;;;1.70;;
54123;SDS011;55741;53.252;5.788;2022-12-07T15:44:27;4.13;;;1.40;;
54123;SDS011;55741;53.252;5.788;2022-12-07T15:47:12;6.25;;;1.80;;
54123;SDS011;55741;53.252;5.788;2022-12-07T15:49:37;6.35;;;1.80;;
54123;SDS011;55741;53.252;5.788;2022-12-07T15:52:03;6.72;;;1.65;;
54123;SDS011;55741;53.252;5.788;2022-12-07T15:54:29;4.93;;;1.30;;
54123;SDS011;55741;53.252;5.788;2022-12-07T15:56:55;6.70;;;1.42;;
54123;SDS011;55741;53.252;5.788;2022-12-07T15:59:22;5.28;;;1.10;;
54123;SDS011;55741;53.252;5.788;2022-12-07T16:01:48;3.90;;;1.05;;
54123;SDS011;55741;53.252;5.788;2022-12-07T16:04:13;4.07;;;0.80;;
54123;SDS011;55741;53.252;5.788;2022-12-07T16:06:39;9.55;;;1.38;;
54123;SDS011;55741;53.252;5.788;2022-12-07T16:09:06;5.15;;;1.30;;
54123;SDS011;55741;53.252;5.788;2022-12-07T16:11:32;13.20;;;2.70;;
54123;SDS011;55741;53.252;5.788;2022-12-07T16:13:58;9.98;;;1.80;;
54123;SDS011;55741;53.252;5.788;2022-12-07T16:16:24;4.07;;;1.45;;
54123;SDS011;55741;53.252;5.788;2022-12-07T16:18:51;6.03;;;2.20;;
54123;SDS011;55741;53.252;5.788;2022-12-07T16:21:17;5.55;;;1.67;;
54123;SDS011;55741;53.252;5.788;2022-12-07T16:23:43;10.02;;;2.63;;
54123;SDS011;55741;53.252;5.788;2022-12-07T16:26:13;10.80;;;3.97;;
54123;SDS011;55741;53.252;5.788;2022-12-07T16:28:43;11.23;;;4.20;;
54123;SDS011;55741;53.252;5.788;2022-12-07T16:31:10;9.70;;;2.80;;
54123;SDS011;55741;53.252;5.788;2022-12-07T16:33:40;4.80;;;2.25;;